Time;durP1;ratioP1;P1;durP2;ratioP2;P2;SDS_P1;SDS_P2;PMS_P1;PMS_P2;Temp;Humidity;BMP_temperature;BMP_pressure;BME280_temperature;BME280_humidity;BME280_pressure;Samples;Min_cycle;Max_cycle;Signal;HPM_P1;HPM_P2
2022/01/06 00:01:22;;;;;;;4.62;4.43;;;;;;;1.77;100.00;100931.75;4379662;32;20613;-68
2022/01/06 00:03:47;;;;;;;3.00;2.90;;;;;;;1.82;100.00;100939.47;4384015;32;20075;-70
2022/01/06 00:06:13;;;;;;;4.45;4.07;;;;;;;2.07;100.00;100976.25;4381659;32;21664;-69
2022/01/06 00:08:39;;;;;;;2.95;2.85;;;;;;;2.16;100.00;101010.63;4385201;32;20167;-69
2022/01/06 00:11:06;;;;;;;2.87;2.78;;;;;;;2.19;100.00;101010.59;4391367;32;20240;-68
2022/01/06 00:14:00;;;;;;;4.30;4.10;;;;;;;2.20;100.00;101008.88;4377845;32;20073;-67
2022/01/06 00:24:15;;;;;;;2.90;2.80;;;;;;;2.13;100.00;101015.00;4386289;32;20100;-68
2022/01/06 00:26:41;;;;;;;3.00;2.90;;;;;;;2.09;100.00;101023.69;4376828;32;20073;-69
2022/01/06 00:29:06;;;;;;;2.80;2.70;;;;;;;1.82;100.00;100976.53;4383178;32;20159;-69
2022/01/06 00:31:32;;;;;;;4.78;4.57;;;;;;;2.12;100.00;101034.84;4383959;32;20069;-68
2022/01/06 00:33:58;;;;;;;2.90;2.80;;;;;;;2.10;100.00;101020.22;4394960;32;20147;-68
2022/01/06 00:36:23;;;;;;;4.15;3.95;;;;;;;2.16;100.00;101040.84;4379123;32;20135;-68
2022/01/06 00:38:48;;;;;;;2.87;2.78;;;;;;;2.05;100.00;101016.84;4383040;32;20072;-68
2022/01/06 00:41:14;;;;;;;2.60;2.50;;;;;;;2.13;100.00;101043.50;4382944;32;20953;-68
2022/01/06 00:43:39;;;;;;;2.85;2.75;;;;;;;2.19;100.00;101046.00;4380023;32;20861;-69
2022/01/06 00:46:04;;;;;;;3.00;2.90;;;;;;;2.10;100.00;101035.75;4389139;32;20057;-68
2022/01/06 00:48:30;;;;;;;4.30;4.10;;;;;;;2.32;100.00;101057.06;4378104;32;20677;-69
2022/01/06 00:50:55;;;;;;;2.80;2.70;;;;;;;1.94;100.00;100993.66;4378530;32;20069;-68
2022/01/06 00:53:20;;;;;;;3.25;3.15;;;;;;;2.28;100.00;101040.69;4379990;32;20101;-69
2022/01/06 00:55:46;;;;;;;3.20;3.10;;;;;;;2.43;100.00;101064.72;4382060;32;20142;-67
2022/01/06 00:58:11;;;;;;;2.70;2.60;;;;;;;2.24;100.00;101044.19;4383979;32;20096;-67
2022/01/06 01:00:40;;;;;;;3.53;3.42;;;;;;;2.51;100.00;101068.06;4380165;32;20357;-69
2022/01/06 01:03:16;;;;;;;2.65;2.55;;;;;;;2.16;100.00;100999.41;4381520;32;20085;-68
2022/01/06 01:05:42;;;;;;;2.90;2.80;;;;;;;2.06;100.00;100987.47;4382015;32;20073;-68
2022/01/06 01:08:07;;;;;;;2.65;2.55;;;;;;;2.51;100.00;101057.69;4364458;32;20057;-68
2022/01/06 01:10:33;;;;;;;4.37;4.18;;;;;;;2.55;100.00;101056.78;4379651;32;20141;-67
2022/01/06 01:12:58;;;;;;;2.90;2.80;;;;;;;2.51;100.00;101061.13;4387211;32;20618;-68
2022/01/06 01:15:24;;;;;;;3.28;3.17;;;;;;;2.10;100.00;101012.44;4381550;32;20092;-68
2022/01/06 01:17:52;;;;;;;2.70;2.60;;;;;;;2.26;100.00;101042.44;4389236;32;20069;-67
2022/01/06 01:20:18;;;;;;;2.50;2.40;;;;;;;2.36;100.00;101085.47;4382515;32;20077;-70
2022/01/06 01:22:44;;;;;;;2.62;2.53;;;;;;;2.20;100.00;101055.47;4392005;32;20172;-68
2022/01/06 01:25:09;;;;;;;3.00;2.80;;;;;;;2.27;100.00;101070.06;4380714;32;20877;-68
2022/01/06 01:27:39;;;;;;;4.55;4.35;;;;;;;2.26;100.00;101067.50;4381460;32;20078;-68
2022/01/06 01:30:10;;;;;;;2.53;2.42;;;;;;;2.07;100.00;101034.06;4390190;32;20065;-68
2022/01/06 01:32:37;;;;;;;4.28;4.07;;;;;;;2.13;100.00;101065.06;4379689;32;20073;-69
2022/01/06 01:35:03;;;;;;;2.50;2.40;;;;;;;1.17;100.00;100901.37;4381157;32;20096;-68
2022/01/06 01:37:29;;;;;;;4.68;4.47;;;;;;;2.11;100.00;101074.56;4373350;32;20084;-68
2022/01/06 01:39:54;;;;;;;3.10;3.00;;;;;;;2.02;100.00;101066.03;4382545;32;20069;-68
2022/01/06 01:42:20;;;;;;;3.40;3.28;;;;;;;2.05;100.00;101077.22;4384263;32;20077;-67
2022/01/06 01:44:47;;;;;;;2.70;2.60;;;;;;;1.99;100.00;101080.72;4368241;32;20091;-68
2022/01/06 01:47:15;;;;;;;2.60;2.50;;;;;;;1.94;100.00;101082.50;4379018;32;20114;-68
2022/01/06 01:50:12;;;;;;;2.75;2.65;;;;;;;1.99;100.00;101085.06;4383692;32;20081;-68
2022/01/06 01:52:29;;;;;;;4.35;4.15;;;;;;;1.96;100.00;101088.53;4378762;32;20139;-68
2022/01/06 01:54:55;;;;;;;2.67;2.58;;;;;;;1.92;100.00;101089.41;4382307;32;20586;-68
2022/01/06 01:57:20;;;;;;;3.05;2.95;;;;;;;1.89;100.00;101091.22;4384964;32;20128;-69
2022/01/06 01:59:45;;;;;;;2.78;2.67;;;;;;;1.67;100.00;101059.50;4377878;32;20076;-68
2022/01/06 02:02:11;;;;;;;2.62;2.53;;;;;;;1.89;100.00;101098.97;4380571;32;20084;-68
2022/01/06 02:04:36;;;;;;;3.37;3.28;;;;;;;1.88;100.00;101103.28;4376429;32;20092;-68
2022/01/06 02:07:03;;;;;;;2.80;2.70;;;;;;;1.87;100.00;101098.13;4379624;32;20874;-68
2022/01/06 02:09:28;;;;;;;4.55;4.35;;;;;;;1.88;100.00;101107.59;4385403;32;20083;-69
2022/01/06 02:11:54;;;;;;;2.90;2.80;;;;;;;1.23;100.00;100994.38;4383456;32;20868;-68
2022/01/06 02:14:19;;;;;;;3.08;2.97;;;;;;;1.81;100.00;101106.81;4387714;32;20083;-68
2022/01/06 02:16:44;;;;;;;2.80;2.70;;;;;;;1.76;100.00;101093.03;4376881;32;20091;-67
2022/01/06 02:19:10;;;;;;;2.53;2.42;;;;;;;1.82;100.00;101103.31;4385080;32;20061;-68
2022/01/06 02:21:40;;;;;;;4.03;3.85;;;;;;;1.78;100.00;101101.66;4382825;32;20083;-69
2022/01/06 02:24:06;;;;;;;2.85;2.75;;;;;;;1.80;100.00;101102.50;4376025;32;20073;-69
2022/01/06 02:26:31;;;;;;;4.95;4.75;;;;;;;1.77;100.00;101102.53;4400364;32;20975;-69
2022/01/06 02:28:56;;;;;;;2.65;2.55;;;;;;;1.72;100.00;101109.47;4379875;32;20771;-68
2022/01/06 02:31:22;;;;;;;3.67;3.58;;;;;;;1.67;100.00;101103.50;4380738;32;20150;-69
2022/01/06 02:33:48;;;;;;;3.00;2.90;;;;;;;1.59;100.00;101088.03;4401567;32;20072;-67
2022/01/06 02:36:14;;;;;;;2.62;2.53;;;;;;;1.60;100.00;101089.72;4385592;32;20069;-69
2022/01/06 02:38:39;;;;;;;2.70;2.60;;;;;;;1.66;100.00;101092.25;4381475;32;21190;-68
2022/01/06 02:41:05;;;;;;;2.70;2.60;;;;;;;1.38;100.00;101050.25;4393401;32;20096;-67
2022/01/06 02:43:31;;;;;;;4.15;3.95;;;;;;;0.44;100.00;100880.50;4377779;32;20057;-67
2022/01/06 02:45:56;;;;;;;2.72;2.62;;;;;;;1.82;100.00;101120.59;4383059;32;20073;-67
2022/01/06 02:48:22;;;;;;;3.80;3.65;;;;;;;1.74;100.00;101115.47;4389685;32;20160;-67
2022/01/06 02:50:48;;;;;;;3.42;3.15;;;;;;;1.75;100.00;101128.41;4382127;32;20081;-67
2022/01/06 02:53:14;;;;;;;2.80;2.70;;;;;;;1.76;100.00;101124.97;4384215;32;20654;-68
2022/01/06 02:55:50;;;;;;;3.10;3.00;;;;;;;1.76;100.00;101127.56;4382027;32;20084;-68
2022/01/06 02:58:20;;;;;;;2.70;2.60;;;;;;;1.68;100.00;101120.72;4390456;32;20135;-67
2022/01/06 03:00:45;;;;;;;2.80;2.70;;;;;;;1.85;100.00;101124.03;4381351;32;20126;-68
2022/01/06 03:03:10;;;;;;;2.60;2.50;;;;;;;1.86;100.00;101130.03;4360749;32;20097;-68
2022/01/06 03:05:36;;;;;;;4.47;4.28;;;;;;;1.94;100.00;101142.03;4382020;32;20080;-67
2022/01/06 03:08:01;;;;;;;2.83;2.72;;;;;;;1.93;100.00;101129.13;4380106;32;20091;-67
2022/01/06 03:10:27;;;;;;;4.35;4.15;;;;;;;2.02;100.00;101138.53;4381512;32;20078;-67
2022/01/06 03:13:02;;;;;;;2.70;2.60;;;;;;;2.02;100.00;101143.69;4383223;32;20096;-69
2022/01/06 03:15:27;;;;;;;4.20;4.00;;;;;;;2.04;100.00;101141.97;4320829;32;20100;-69
2022/01/06 03:17:55;;;;;;;2.70;2.60;;;;;;;2.03;100.00;101148.87;4396076;32;20073;-69
2022/01/06 03:20:23;;;;;;;3.12;3.03;;;;;;;1.74;100.00;101100.81;4383880;32;20562;-70
2022/01/06 03:22:49;;;;;;;2.80;2.70;;;;;;;2.05;100.00;101148.87;4381862;32;20072;-68
2022/01/06 03:25:15;;;;;;;2.62;2.53;;;;;;;1.81;100.00;101101.63;4381826;32;20167;-68
2022/01/06 03:27:41;;;;;;;2.70;2.60;;;;;;;2.15;100.00;101155.66;4363735;32;20077;-67
2022/01/06 03:30:08;;;;;;;2.55;2.45;;;;;;;2.16;100.00;101147.84;4381980;32;20190;-66
2022/01/06 03:32:33;;;;;;;4.12;3.92;;;;;;;2.12;100.00;101150.50;4373635;32;20864;-67
2022/01/06 03:34:59;;;;;;;2.70;2.60;;;;;;;2.01;100.00;101145.44;4380452;32;20065;-68
2022/01/06 03:37:24;;;;;;;4.28;4.07;;;;;;;1.97;100.00;101151.53;4384618;32;20469;-67
2022/01/06 03:39:49;;;;;;;2.70;2.60;;;;;;;1.91;100.00;101149.84;4382058;32;20073;-67
2022/01/06 03:42:15;;;;;;;2.80;2.70;;;;;;;1.87;100.00;101148.16;4384886;32;20084;-67
2022/01/06 03:44:40;;;;;;;2.70;2.60;;;;;;;1.85;100.00;101143.88;4384541;32;20068;-66
2022/01/06 03:47:06;;;;;;;2.60;2.50;;;;;;;1.64;100.00;101113.84;4380987;32;20166;-67
2022/01/06 03:49:31;;;;;;;4.35;4.15;;;;;;;1.85;100.00;101155.06;4384862;32;20092;-67
2022/01/06 03:51:56;;;;;;;2.80;2.70;;;;;;;1.83;100.00;101159.41;4367684;32;21150;-67
2022/01/06 03:54:22;;;;;;;3.45;3.35;;;;;;;1.74;100.00;101159.47;4384173;32;20077;-69
2022/01/06 03:56:48;;;;;;;2.60;2.50;;;;;;;1.63;100.00;101150.97;4388851;32;20077;-67
2022/01/06 03:59:15;;;;;;;2.60;2.50;;;;;;;1.14;100.00;101085.81;4385487;32;20084;-68
2022/01/06 04:01:41;;;;;;;3.00;2.90;;;;;;;1.68;100.00;101167.28;4387307;32;20632;-67
2022/01/06 04:04:06;;;;;;;2.80;2.70;;;;;;;1.67;100.00;101178.53;4383426;32;20632;-67
2022/01/06 04:06:31;;;;;;;4.35;4.15;;;;;;;1.65;100.00;101175.09;4383125;32;20091;-66
2022/01/06 04:08:57;;;;;;;2.60;2.50;;;;;;;1.54;100.00;101173.44;4397110;32;20130;-68
2022/01/06 04:11:22;;;;;;;3.83;3.72;;;;;;;1.37;100.00;101154.59;4380119;32;20904;-67
2022/01/06 04:13:48;;;;;;;2.60;2.50;;;;;;;1.46;100.00;101182.09;4383431;32;20176;-68
2022/01/06 04:16:16;;;;;;;2.60;2.50;;;;;;;1.45;100.00;101186.44;4392608;32;20066;-68
2022/01/06 04:18:41;;;;;;;3.00;2.90;;;;;;;1.10;100.00;101130.66;4389272;32;20058;-67
2022/01/06 04:21:07;;;;;;;2.50;2.40;;;;;;;1.44;100.00;101194.19;4387411;32;20072;-68
2022/01/06 04:23:33;;;;;;;4.72;4.53;;;;;;;1.39;100.00;101199.41;4382202;32;20085;-67
2022/01/06 04:25:58;;;;;;;3.30;3.10;;;;;;;1.31;100.00;101201.19;4384044;32;20100;-66
2022/01/06 04:28:23;;;;;;;3.95;3.80;;;;;;;1.28;100.00;101214.09;4381687;32;20128;-66
2022/01/06 04:30:49;;;;;;;2.87;2.78;;;;;;;0.91;100.00;101147.12;4392829;32;20077;-67
2022/01/06 04:33:14;;;;;;;2.65;2.55;;;;;;;1.22;100.00;101209.81;4378458;32;20238;-67
2022/01/06 04:35:39;;;;;;;2.60;2.50;;;;;;;1.19;100.00;101210.72;4378941;32;20079;-69
2022/01/06 04:38:05;;;;;;;2.70;2.60;;;;;;;0.91;100.00;101167.78;4380797;32;20061;-69
2022/01/06 04:40:30;;;;;;;4.35;4.15;;;;;;;1.17;100.00;101207.28;4379949;32;20551;-69
2022/01/06 04:42:55;;;;;;;2.50;2.40;;;;;;;0.98;100.00;101193.59;4384393;32;20127;-68
2022/01/06 04:45:21;;;;;;;3.10;3.00;;;;;;;0.72;100.00;101156.66;4379230;32;20091;-70
2022/01/06 04:47:46;;;;;;;2.60;2.50;;;;;;;1.03;100.00;101214.25;4384735;32;20172;-68
2022/01/06 04:50:12;;;;;;;2.60;2.50;;;;;;;1.02;100.00;101217.69;4386093;32;20586;-69
2022/01/06 04:52:37;;;;;;;3.83;3.58;;;;;;;1.02;100.00;101219.41;4377604;32;20537;-68
2022/01/06 04:55:04;;;;;;;2.60;2.50;;;;;;;0.96;100.00;101216.00;4385187;32;20147;-69
2022/01/06 04:57:29;;;;;;;4.03;3.85;;;;;;;0.96;100.00;101221.16;4374404;32;20197;-69
2022/01/06 04:59:55;;;;;;;2.67;2.58;;;;;;;0.91;100.00;101229.81;4380101;32;20069;-69
2022/01/06 05:02:20;;;;;;;2.95;2.85;;;;;;;0.89;100.00;101226.37;4383840;32;20096;-70
2022/01/06 05:04:45;;;;;;;2.70;2.60;;;;;;;0.36;100.00;101146.47;4377823;32;20092;-69
2022/01/06 05:07:11;;;;;;;2.70;2.60;;;;;;;0.90;100.00;101233.22;4384414;32;20074;-69
2022/01/06 05:09:36;;;;;;;3.47;3.37;;;;;;;0.87;100.00;101235.84;4384369;32;20143;-68
2022/01/06 05:12:02;;;;;;;2.70;2.60;;;;;;;0.85;100.00;101243.59;4383633;32;20086;-69
2022/01/06 05:14:27;;;;;;;4.25;4.05;;;;;;;0.83;100.00;101240.16;4388764;32;20089;-69
2022/01/06 05:16:52;;;;;;;2.78;2.67;;;;;;;0.77;100.00;101246.19;4378881;32;20069;-69
2022/01/06 05:19:18;;;;;;;2.45;2.35;;;;;;;0.77;100.00;101253.09;4384610;32;20148;-71
2022/01/06 05:21:43;;;;;;;2.50;2.40;;;;;;;0.74;100.00;101256.56;4383018;32;20069;-70
2022/01/06 05:24:16;;;;;;;2.62;2.53;;;;;;;0.71;100.00;101259.12;4383751;32;20633;-69
2022/01/06 05:26:42;;;;;;;2.60;2.50;;;;;;;0.65;100.00;101259.16;4386074;32;20123;-70
2022/01/06 05:29:08;;;;;;;2.60;2.50;;;;;;;0.61;100.00;101256.59;4380968;32;20486;-69
2022/01/06 05:31:33;;;;;;;4.25;4.05;;;;;;;0.61;100.00;101235.94;4384951;32;20086;-70
2022/01/06 05:33:59;;;;;;;2.40;2.30;;;;;;;0.70;100.00;101257.44;4394480;32;20146;-69
2022/01/06 05:36:24;;;;;;;3.83;3.70;;;;;;;0.65;100.00;101261.72;4384730;32;20573;-69
2022/01/06 05:38:49;;;;;;;2.87;2.78;;;;;;;0.63;100.00;101271.22;4382894;32;20083;-69
2022/01/06 05:41:15;;;;;;;2.70;2.60;;;;;;;0.54;100.00;101269.50;4380166;32;20073;-69
2022/01/06 05:43:40;;;;;;;2.50;2.40;;;;;;;0.49;100.00;101273.81;4381961;32;20084;-69
2022/01/06 05:46:05;;;;;;;2.60;2.50;;;;;;;0.42;100.00;101279.84;4384448;32;20057;-70
2022/01/06 05:48:31;;;;;;;4.03;3.83;;;;;;;-1.03;100.00;101044.31;4378427;32;20092;-68
2022/01/06 05:50:56;;;;;;;2.78;2.67;;;;;;;0.37;100.00;101279.84;4386754;32;20087;-69
2022/01/06 05:53:22;;;;;;;3.78;3.62;;;;;;;0.36;100.00;101278.16;4377786;32;20065;-70
2022/01/06 05:55:47;;;;;;;2.50;2.40;;;;;;;0.32;100.00;101285.88;4385646;32;20060;-67
2022/01/06 05:58:12;;;;;;;2.67;2.58;;;;;;;0.34;100.00;101285.03;4386645;32;20064;-68
2022/01/06 06:00:38;;;;;;;2.60;2.50;;;;;;;0.33;100.00;101292.75;4377874;32;20310;-68
2022/01/06 06:03:03;;;;;;;2.50;2.40;;;;;;;0.29;100.00;101296.22;4386710;32;20877;-68
2022/01/06 06:05:28;;;;;;;3.65;3.55;;;;;;;0.34;100.00;101295.34;4376529;32;20061;-68
2022/01/06 06:07:54;;;;;;;2.60;2.50;;;;;;;0.28;100.00;101299.62;4384908;32;20098;-69
2022/01/06 06:10:19;;;;;;;2.83;2.72;;;;;;;0.30;100.00;101300.50;4380966;32;20558;-68
2022/01/06 06:12:44;;;;;;;2.60;2.50;;;;;;;0.23;100.00;101309.97;4385495;32;20164;-68
2022/01/06 06:15:10;;;;;;;2.40;2.30;;;;;;;0.21;100.00;101313.44;4386636;32;20080;-68
2022/01/06 06:17:35;;;;;;;4.15;3.95;;;;;;;0.19;100.00;101322.00;4378496;32;20199;-67
2022/01/06 06:20:01;;;;;;;2.50;2.40;;;;;;;0.06;100.00;101309.09;4385123;32;20083;-69
2022/01/06 06:22:26;;;;;;;4.00;3.83;;;;;;;0.11;100.00;101328.87;4386641;32;20121;-67
2022/01/06 06:24:51;;;;;;;2.70;2.60;;;;;;;0.14;100.00;101356.41;4382022;32;20131;-67
2022/01/06 06:27:17;;;;;;;2.40;2.30;;;;;;;0.17;100.00;101336.62;4386375;32;20083;-68
2022/01/06 06:29:42;;;;;;;2.53;2.42;;;;;;;0.12;100.00;101334.91;4380766;32;20088;-68
2022/01/06 06:32:08;;;;;;;2.62;2.53;;;;;;;0.15;100.00;101334.91;4374442;32;20080;-68
2022/01/06 06:34:33;;;;;;;3.80;3.67;;;;;;;0.12;100.00;101340.94;4389054;32;20081;-68
2022/01/06 06:36:58;;;;;;;2.60;2.50;;;;;;;0.01;100.00;101313.41;4380057;32;20077;-69
2022/01/06 06:39:24;;;;;;;3.87;3.72;;;;;;;0.16;100.00;101345.25;4382947;32;20080;-67
2022/01/06 06:41:49;;;;;;;2.55;2.45;;;;;;;0.19;100.00;101347.81;4384268;32;20080;-67
2022/01/06 06:44:14;;;;;;;2.40;2.30;;;;;;;0.11;100.00;101351.25;4380868;32;20860;-68
2022/01/06 06:46:40;;;;;;;2.40;2.30;;;;;;;0.05;100.00;101352.09;4380575;32;20098;-67
2022/01/06 06:49:05;;;;;;;2.40;2.30;;;;;;;0.05;100.00;101353.84;4383279;32;20057;-67
2022/01/06 06:51:30;;;;;;;4.55;4.35;;;;;;;-0.03;100.00;101328.00;4382366;32;20091;-68
2022/01/06 06:53:56;;;;;;;2.60;2.50;;;;;;;0.08;100.00;101340.91;4384782;32;20573;-67
2022/01/06 06:56:21;;;;;;;3.22;3.12;;;;;;;0.18;100.00;101356.44;4389818;32;20075;-69
2022/01/06 06:58:46;;;;;;;2.50;2.40;;;;;;;0.16;100.00;101360.75;4369483;32;20070;-69
2022/01/06 07:01:12;;;;;;;2.50;2.40;;;;;;;0.11;100.00;101364.16;4377395;32;20069;-69
2022/01/06 07:03:37;;;;;;;3.28;3.17;;;;;;;0.10;100.00;101377.91;4366461;32;20519;-69
2022/01/06 07:06:03;;;;;;;2.55;2.45;;;;;;;0.17;100.00;101380.50;4367481;32;20146;-69
2022/01/06 07:08:28;;;;;;;4.25;4.05;;;;;;;0.02;100.00;101375.34;4379649;32;20075;-69
2022/01/06 07:10:53;;;;;;;2.65;2.55;;;;;;;0.19;100.00;101388.28;4377930;32;20562;-69
2022/01/06 07:13:19;;;;;;;3.33;3.22;;;;;;;0.12;100.00;101391.69;4375241;32;20097;-70
2022/01/06 07:15:45;;;;;;;2.40;2.30;;;;;;;-1.25;100.00;101174.72;4377048;32;21129;-69
2022/01/06 07:18:11;;;;;;;2.60;2.50;;;;;;;0.15;100.00;101392.56;4376924;32;20077;-69
2022/01/06 07:20:36;;;;;;;4.07;3.87;;;;;;;-0.21;100.00;101334.84;4376266;32;20535;-69
2022/01/06 07:23:02;;;;;;;2.65;2.55;;;;;;;0.17;100.00;101405.47;4385210;32;20176;-69
2022/01/06 07:25:27;;;;;;;4.32;4.12;;;;;;;0.25;100.00;101410.66;4371011;32;20073;-69
2022/01/06 07:27:52;;;;;;;2.80;2.70;;;;;;;0.27;100.00;101407.22;4365178;32;20093;-70
2022/01/06 07:30:18;;;;;;;2.70;2.60;;;;;;;0.29;100.00;101418.41;4378328;32;20807;-71
2022/01/06 07:32:47;;;;;;;2.80;2.70;;;;;;;0.15;100.00;101391.69;4374935;32;21842;-69
2022/01/06 07:35:13;;;;;;;2.87;2.78;;;;;;;0.38;100.00;101418.44;4396786;32;20571;-68
2022/01/06 07:37:38;;;;;;;3.58;3.47;;;;;;;0.37;100.00;101418.41;4375599;32;20090;-68
2022/01/06 07:40:05;;;;;;;2.70;2.60;;;;;;;0.44;100.00;101427.03;4377673;32;20061;-68
2022/01/06 07:42:31;;;;;;;4.65;4.45;;;;;;;0.43;100.00;101425.31;4376187;32;20061;-68
2022/01/06 07:44:59;;;;;;;2.60;2.50;;;;;;;0.49;100.00;101427.91;4376740;32;20068;-69
2022/01/06 07:47:24;;;;;;;4.25;4.05;;;;;;;0.50;100.00;101434.78;4380166;32;20073;-69
2022/01/06 07:49:49;;;;;;;2.62;2.53;;;;;;;0.53;100.00;101439.97;4375142;32;20356;-69
2022/01/06 07:52:15;;;;;;;3.00;2.90;;;;;;;0.54;100.00;101441.66;4378370;32;20092;-69
2022/01/06 07:54:40;;;;;;;2.90;2.80;;;;;;;0.11;100.00;101377.94;4363567;32;20555;-68
2022/01/06 07:57:05;;;;;;;2.80;2.70;;;;;;;0.54;100.00;101457.16;4357324;32;20062;-68
2022/01/06 07:59:31;;;;;;;4.37;4.18;;;;;;;0.60;100.00;101462.31;4365513;32;20074;-68
2022/01/06 08:01:56;;;;;;;3.35;3.25;;;;;;;0.59;100.00;101466.63;4367605;32;20272;-68
2022/01/06 08:04:22;;;;;;;3.53;3.40;;;;;;;0.64;100.00;101465.78;4380688;32;20084;-69
2022/01/06 08:06:47;;;;;;;2.95;2.85;;;;;;;0.66;100.00;101464.94;4366952;32;20074;-69
2022/01/06 08:09:12;;;;;;;2.85;2.75;;;;;;;0.69;100.00;101470.09;4347722;32;20058;-70
2022/01/06 08:11:38;;;;;;;3.45;3.35;;;;;;;0.36;100.00;101406.34;4359474;32;20069;-68
2022/01/06 08:14:03;;;;;;;2.78;2.67;;;;;;;0.79;100.00;101476.16;4368758;32;20088;-70
2022/01/06 08:16:28;;;;;;;3.72;3.62;;;;;;;0.86;100.00;101482.16;4381211;32;20070;-71
2022/01/06 08:18:54;;;;;;;2.67;2.58;;;;;;;0.86;100.00;101484.75;4366341;32;20098;-70
2022/01/06 08:21:19;;;;;;;3.03;2.92;;;;;;;0.77;100.00;101460.63;4351975;32;20894;-71
2022/01/06 08:23:45;;;;;;;4.07;3.87;;;;;;;0.53;100.00;101424.47;4363031;32;20066;-68
2022/01/06 08:26:10;;;;;;;3.40;3.17;;;;;;;0.81;100.00;101469.25;4369082;32;20888;-68
2022/01/06 08:28:36;;;;;;;4.25;4.05;;;;;;;0.89;100.00;101485.63;4365730;32;20066;-70
2022/01/06 08:31:01;;;;;;;2.70;2.60;;;;;;;0.93;100.00;101489.06;4351112;32;20650;-75
2022/01/06 08:33:27;;;;;;;4.18;3.97;;;;;;;0.92;100.00;101501.13;4366274;32;20085;-69
2022/01/06 08:35:52;;;;;;;2.85;2.75;;;;;;;0.81;100.00;101477.00;4363954;32;20069;-69
2022/01/06 08:38:18;;;;;;;2.60;2.50;;;;;;;-0.45;100.00;101283.22;4371443;32;20671;-71
2022/01/06 08:40:43;;;;;;;2.58;2.47;;;;;;;1.05;100.00;101508.91;4364533;32;20085;-68
2022/01/06 08:43:09;;;;;;;2.50;2.40;;;;;;;-0.12;100.00;101313.38;4381198;32;20103;-72
2022/01/06 08:45:34;;;;;;;4.25;4.05;;;;;;;1.01;100.00;101491.66;4363620;32;20085;-71
2022/01/06 08:48:01;;;;;;;2.67;2.58;;;;;;;1.20;100.00;101508.88;4365963;32;20690;-70
2022/01/06 08:50:26;;;;;;;4.30;4.10;;;;;;;1.17;100.00;101496.81;4372928;32;20085;-67
2022/01/06 08:52:51;;;;;;;2.80;2.70;;;;;;;1.28;100.00;101520.06;4364886;32;20065;-68
2022/01/06 08:55:19;;;;;;;2.62;2.53;;;;;;;1.30;100.00;101522.66;4366018;32;20575;-70
2022/01/06 08:57:44;;;;;;;2.70;2.60;;;;;;;1.23;100.00;101492.50;4379899;32;20188;-71
2022/01/06 09:00:10;;;;;;;2.65;2.55;;;;;;;1.43;100.00;101510.59;4388818;32;20087;-69
2022/01/06 09:02:36;;;;;;;4.37;4.18;;;;;;;1.41;100.00;101504.56;4387437;32;20583;-69
2022/01/06 09:05:05;;;;;;;2.60;2.50;;;;;;;1.57;100.00;101522.63;4381161;32;20103;-70
2022/01/06 09:07:31;;;;;;;4.03;3.85;;;;;;;1.70;100.00;101523.47;4382373;32;20074;-69
2022/01/06 09:09:56;;;;;;;2.75;2.65;;;;;;;1.62;100.00;101495.88;4376825;32;20547;-68
2022/01/06 09:12:22;;;;;;;3.97;3.80;;;;;;;1.93;100.00;101519.97;4378666;32;20558;-70
2022/01/06 09:14:47;;;;;;;2.70;2.60;;;;;;;2.16;100.00;101530.22;4380960;32;20069;-68
2022/01/06 09:17:14;;;;;;;2.80;2.70;;;;;;;2.25;100.00;101530.19;4377582;32;20145;-72
2022/01/06 09:19:39;;;;;;;3.10;3.00;;;;;;;2.54;100.00;101532.63;4378202;32;20179;-73
2022/01/06 09:22:04;;;;;;;3.00;2.90;;;;;;;2.75;100.00;101534.25;4382288;32;20069;-74
2022/01/06 09:24:30;;;;;;;3.95;3.75;;;;;;;2.88;100.00;101534.16;4378540;32;20123;-68
2022/01/06 09:26:55;;;;;;;3.00;2.90;;;;;;;2.92;100.00;101523.75;4369888;32;20081;-74
2022/01/06 09:29:20;;;;;;;3.08;2.97;;;;;;;3.02;100.00;101539.25;4377626;32;20073;-76
2022/01/06 09:31:46;;;;;;;3.10;3.00;;;;;;;2.98;100.00;101531.47;4383127;32;20153;-71
2022/01/06 09:34:11;;;;;;;3.08;2.97;;;;;;;2.97;100.00;101534.97;4387696;32;20093;-72
2022/01/06 09:36:37;;;;;;;3.40;3.30;;;;;;;2.83;100.00;101531.59;4377631;32;20418;-70
2022/01/06 09:39:03;;;;;;;3.00;2.90;;;;;;;2.85;100.00;101531.59;4388358;32;20087;-75
2022/01/06 09:41:30;;;;;;;4.35;4.15;;;;;;;2.77;100.00;101534.25;4383218;32;20081;-71
2022/01/06 09:43:55;;;;;;;3.10;3.00;;;;;;;2.71;100.00;101534.28;4382691;32;20741;-73
2022/01/06 09:46:24;;;;;;;3.97;3.80;;;;;;;2.54;100.00;101545.59;4380971;32;20084;-74
2022/01/06 09:48:49;;;;;;;3.00;2.90;;;;;;;2.49;100.00;101551.69;4378529;32;20086;-72
2022/01/06 09:51:15;;;;;;;2.90;2.80;;;;;;;2.27;100.00;101507.75;4394589;32;20087;-73
2022/01/06 09:53:40;;;;;;;3.80;3.60;;;;;;;2.58;100.00;101544.69;4378852;32;20426;-71
2022/01/06 09:56:06;;;;;;;3.10;3.00;;;;;;;2.69;100.00;101546.41;4377936;32;20080;-73
2022/01/06 09:58:31;;;;;;;4.22;4.03;;;;;;;2.63;100.00;101523.97;4381496;32;20512;-69
2022/01/06 10:00:56;;;;;;;3.10;3.00;;;;;;;2.87;100.00;101541.09;4366372;32;20563;-73
2022/01/06 10:03:35;;;;;;;3.45;3.35;;;;;;;2.75;100.00;101518.69;4380058;32;20609;-76
2022/01/06 10:06:21;;;;;;;3.12;3.03;;;;;;;2.99;100.00;101545.31;4371206;32;20673;-73
2022/01/06 10:08:53;;;;;;;3.53;3.22;;;;;;;3.11;100.00;101549.56;4379310;32;20193;-76
2022/01/06 10:11:25;;;;;;;3.78;3.58;;;;;;;3.22;100.00;101546.88;4397368;32;20391;-72
2022/01/06 10:14:05;;;;;;;3.58;3.42;;;;;;;3.30;99.53;101545.06;4383000;32;20103;-71
2022/01/06 10:16:30;;;;;;;4.20;4.00;;;;;;;3.20;98.35;101554.66;4380212;32;20100;-72
2022/01/06 10:19:03;;;;;;;3.20;3.10;;;;;;;3.34;98.76;101547.62;4389235;32;20088;-71
2022/01/06 10:21:40;;;;;;;4.05;3.87;;;;;;;3.12;96.95;101553.88;4403864;32;20401;-71
2022/01/06 10:24:13;;;;;;;3.00;2.90;;;;;;;3.02;97.33;101558.25;4381226;32;20088;-73
2022/01/06 10:26:56;;;;;;;3.00;2.90;;;;;;;3.07;97.76;101553.91;4383168;32;20083;-71
2022/01/06 10:29:22;;;;;;;4.18;4.00;;;;;;;3.09;98.48;101556.50;4371541;32;20111;-72
2022/01/06 10:31:48;;;;;;;3.00;2.90;;;;;;;3.08;98.32;101557.34;4381440;32;20626;-71
2022/01/06 10:34:13;;;;;;;2.78;2.67;;;;;;;3.13;98.13;101558.19;4382453;32;20087;-75
2022/01/06 10:36:39;;;;;;;3.67;3.58;;;;;;;3.28;98.58;101552.88;4380091;32;20122;-71
2022/01/06 10:39:06;;;;;;;2.92;2.83;;;;;;;3.22;98.10;101539.94;4379584;32;20594;-75
2022/01/06 10:41:31;;;;;;;4.05;3.85;;;;;;;3.44;97.88;101545.81;4381025;32;20072;-72
2022/01/06 10:43:58;;;;;;;3.00;2.90;;;;;;;3.60;97.64;101547.38;4384444;32;20154;-71
2022/01/06 10:46:38;;;;;;;4.28;4.07;;;;;;;3.77;97.59;101551.56;4387092;32;20143;-73
2022/01/06 10:49:14;;;;;;;3.10;3.00;;;;;;;3.47;96.14;101514.66;4384648;32;20228;-71
2022/01/06 10:51:40;;;;;;;3.00;2.90;;;;;;;3.83;95.91;101558.41;4378656;32;20431;-73
2022/01/06 10:54:13;;;;;;;3.00;2.90;;;;;;;3.76;95.13;101548.09;4394823;32;20247;-72
2022/01/06 10:56:39;;;;;;;3.00;2.90;;;;;;;3.54;94.46;101505.91;4387138;32;20101;-69
2022/01/06 10:59:04;;;;;;;3.28;3.17;;;;;;;4.24;95.05;101544.97;4383011;32;20076;-71
2022/01/06 11:01:33;;;;;;;4.40;4.20;;;;;;;4.46;93.96;101550.75;4378980;32;20065;-72
2022/01/06 11:03:59;;;;;;;3.65;3.45;;;;;;;4.59;92.27;101539.31;4384976;32;20530;-70
2022/01/06 11:06:24;;;;;;;4.72;4.53;;;;;;;4.71;91.83;101524.41;4384422;32;20183;-73
2022/01/06 11:08:51;;;;;;;3.40;3.30;;;;;;;4.96;90.86;101533.56;4383254;32;20939;-73
2022/01/06 11:11:30;;;;;;;3.25;3.15;;;;;;;4.89;90.14;101539.75;4382436;32;20077;-71
2022/01/06 11:13:56;;;;;;;4.55;4.25;;;;;;;4.90;89.55;101535.41;4383670;32;20097;-70
2022/01/06 11:16:21;;;;;;;4.55;4.37;;;;;;;4.87;89.64;101536.31;4378339;32;20127;-70
2022/01/06 11:18:57;;;;;;;3.10;3.00;;;;;;;4.75;89.27;101539.97;4364134;32;20146;-72
2022/01/06 11:21:39;;;;;;;4.32;4.15;;;;;;;4.61;89.44;101466.50;4378317;32;20139;-71
2022/01/06 11:24:15;;;;;;;3.50;3.40;;;;;;;5.28;89.07;101541.75;4392293;32;20077;-72
2022/01/06 11:26:55;;;;;;;4.18;3.97;;;;;;;5.09;87.60;101575.00;4386182;32;20182;-72
2022/01/06 11:29:29;;;;;;;4.03;3.87;;;;;;;4.98;85.56;101538.75;4378392;32;20403;-75
2022/01/06 11:31:55;;;;;;;3.60;3.50;;;;;;;5.01;86.40;101499.66;4377420;32;20129;-74